createdAt,value
2018-07-02T00:00:30.181Z,56.50
2018-07-02T00:02:05.869Z,56.33
2018-07-02T00:03:41.443Z,56.33
2018-07-02T00:05:17.041Z,56.27
2018-07-02T00:07:03.949Z,56.50
2018-07-02T00:08:39.767Z,56.66
2018-07-02T00:10:15.384Z,56.82
2018-07-02T00:11:51.163Z,56.74
2018-07-02T00:13:27.863Z,56.96
2018-07-02T00:15:03.482Z,57.48
2018-07-02T00:16:39.053Z,57.16
2018-07-02T00:18:14.653Z,57.30
2018-07-02T00:19:50.219Z,57.81
2018-07-02T00:21:25.786Z,57.88
2018-07-02T00:23:01.395Z,57.93
2018-07-02T00:24:36.987Z,58.29
2018-07-02T00:26:12.581Z,58.38
2018-07-02T00:27:48.123Z,58.44
2018-07-02T00:29:23.995Z,58.27
2018-07-02T00:30:59.573Z,58.26
2018-07-02T00:32:35.173Z,58.43
2018-07-02T00:34:10.753Z,58.47
2018-07-02T00:35:46.320Z,58.33
2018-07-02T00:37:21.906Z,58.37
2018-07-02T00:38:57.494Z,58.82
2018-07-02T00:40:33.095Z,58.44
2018-07-02T00:42:08.718Z,58.75
2018-07-02T00:43:44.421Z,59.00
2018-07-02T00:45:20.070Z,59.19
2018-07-02T00:46:55.756Z,59.44
2018-07-02T00:48:31.389Z,59.56
2018-07-02T00:50:07.068Z,59.58
2018-07-02T00:51:42.715Z,59.39
2018-07-02T00:53:18.339Z,59.58
2018-07-02T00:54:53.923Z,59.78
2018-07-02T00:56:29.537Z,59.94
2018-07-02T00:58:05.286Z,60.36
2018-07-02T00:59:40.868Z,60.50
2018-07-02T01:01:16.761Z,60.85
2018-07-02T01:02:52.378Z,60.93
2018-07-02T01:04:28.038Z,60.82
2018-07-02T01:06:03.606Z,60.91
2018-07-02T01:07:39.214Z,61.29
2018-07-02T01:09:14.788Z,61.09
2018-07-02T01:10:50.390Z,60.88
2018-07-02T01:12:26.011Z,61.36
2018-07-02T01:14:01.795Z,61.57
2018-07-02T01:17:19.466Z,61.54
2018-07-02T01:18:55.093Z,61.67
2018-07-02T01:20:30.700Z,61.49
2018-07-02T01:22:06.333Z,62.02
2018-07-02T01:23:42.372Z,61.79
2018-07-02T01:25:18.260Z,61.70
2018-07-02T01:26:53.922Z,62.25
2018-07-02T01:28:29.533Z,62.19
2018-07-02T01:30:06.205Z,62.48
2018-07-02T01:31:42.042Z,62.10
2018-07-02T01:33:17.712Z,62.41
2018-07-02T01:34:53.657Z,62.45
2018-07-02T01:36:29.256Z,63.01
2018-07-02T01:38:05.279Z,62.59
2018-07-02T01:39:40.910Z,63.00
2018-07-02T01:41:16.962Z,62.70
2018-07-02T01:42:52.596Z,62.61
2018-07-02T01:44:28.218Z,62.74
2018-07-02T01:46:04.096Z,63.00
2018-07-02T01:47:39.714Z,63.13
2018-07-02T01:49:15.352Z,63.22
2018-07-02T01:50:50.928Z,63.59
2018-07-02T01:52:26.567Z,63.26
2018-07-02T01:54:02.182Z,63.57
2018-07-02T01:55:37.747Z,63.73
2018-07-02T01:57:13.323Z,63.66
2018-07-02T01:58:48.920Z,63.77
2018-07-02T02:00:24.491Z,63.76
2018-07-02T02:02:00.116Z,63.81
2018-07-02T02:03:35.689Z,64.15
2018-07-02T02:05:11.323Z,64.28
2018-07-02T02:06:46.896Z,64.59
2018-07-02T02:08:22.458Z,64.71
2018-07-02T02:09:58.069Z,64.63
2018-07-02T02:11:33.621Z,64.58
2018-07-02T02:13:09.194Z,64.28
2018-07-02T02:14:44.763Z,64.92
2018-07-02T02:16:20.418Z,64.58
2018-07-02T02:17:56.162Z,65.11
2018-07-02T02:19:31.743Z,65.18
2018-07-02T02:21:07.392Z,65.45
2018-07-02T02:22:43.025Z,65.35
2018-07-02T02:24:18.655Z,65.21
2018-07-02T02:25:54.214Z,65.49
2018-07-02T02:27:29.792Z,65.32
2018-07-02T02:29:05.428Z,65.66
2018-07-02T02:30:41.008Z,65.88
2018-07-02T02:32:16.764Z,65.90
2018-07-02T02:33:52.721Z,65.73
2018-07-02T02:35:28.703Z,66.19
2018-07-02T02:37:04.329Z,66.26
2018-07-02T02:38:40.059Z,66.38
2018-07-02T02:40:15.659Z,66.02
2018-07-02T02:41:51.248Z,66.22
2018-07-02T02:43:26.880Z,66.67
2018-07-02T02:45:02.486Z,66.87
2018-07-02T02:46:38.079Z,66.38
2018-07-02T02:48:13.691Z,66.69
2018-07-02T02:49:49.330Z,66.70
2018-07-02T02:51:24.910Z,66.47
2018-07-02T02:53:00.478Z,66.50
2018-07-02T02:54:36.063Z,66.72
2018-07-02T02:56:11.784Z,66.73
2018-07-02T02:57:47.377Z,66.90
2018-07-02T02:59:22.990Z,66.76
2018-07-02T03:00:58.619Z,66.67
2018-07-02T03:02:34.184Z,66.94
2018-07-02T03:04:09.784Z,66.77
2018-07-02T03:05:45.452Z,66.84
2018-07-02T03:07:21.255Z,66.79
2018-07-02T03:08:56.929Z,66.28
2018-07-02T03:10:32.524Z,66.65
2018-07-02T03:12:08.142Z,66.48
2018-07-02T03:13:43.854Z,66.63
2018-07-02T03:15:19.532Z,67.03
2018-07-02T03:16:55.089Z,66.90
2018-07-02T03:18:30.726Z,66.91
2018-07-02T03:20:06.671Z,66.95
2018-07-02T03:21:42.314Z,66.60
2018-07-02T03:23:17.938Z,66.59
2018-07-02T03:24:53.566Z,66.63
2018-07-02T03:26:29.215Z,66.76
2018-07-02T03:28:04.879Z,66.76
2018-07-02T03:29:40.512Z,66.84
2018-07-02T03:31:16.114Z,67.05
2018-07-02T03:32:51.778Z,66.63
2018-07-02T03:34:27.446Z,66.52
2018-07-02T03:36:03.403Z,66.62
2018-07-02T03:37:38.977Z,66.65
2018-07-02T03:39:14.562Z,66.90
2018-07-02T03:40:50.237Z,66.68
2018-07-02T03:42:25.812Z,66.89
2018-07-02T03:44:01.641Z,66.89
2018-07-02T03:45:37.286Z,66.83
2018-07-02T03:47:12.939Z,66.84
2018-07-02T03:48:48.606Z,66.54
2018-07-02T03:50:24.223Z,66.63
2018-07-02T03:51:59.835Z,66.39
2018-07-02T03:53:35.666Z,66.58
2018-07-02T03:55:11.635Z,66.45
2018-07-02T03:56:47.231Z,66.50
2018-07-02T03:58:22.965Z,67.01
2018-07-02T03:59:58.813Z,66.33
2018-07-02T04:01:34.609Z,66.15
2018-07-02T04:03:10.252Z,66.28
2018-07-02T04:04:45.936Z,66.29
2018-07-02T04:06:21.539Z,66.30
2018-07-02T04:07:57.163Z,66.49
2018-07-02T04:09:32.740Z,66.20
2018-07-02T04:11:08.391Z,66.50
2018-07-02T04:12:44.007Z,66.44
2018-07-02T04:14:19.807Z,65.72
2018-07-02T04:15:55.411Z,65.72
2018-07-02T04:17:31.083Z,64.35
2018-07-02T04:19:10.346Z,61.12
2018-07-02T04:20:45.933Z,56.32
2018-07-02T04:22:21.502Z,50.29
2018-07-02T04:23:57.103Z,44.47
2018-07-02T04:25:32.871Z,40.28
2018-07-02T04:27:08.501Z,37.52
2018-07-02T04:28:44.133Z,35.96
2018-07-02T04:30:19.806Z,34.70
2018-07-02T04:31:55.377Z,33.26
2018-07-02T04:33:30.964Z,32.25
2018-07-02T04:35:06.635Z,30.58
2018-07-02T04:36:42.219Z,29.78
2018-07-02T04:38:17.915Z,30.30
2018-07-02T04:39:53.551Z,29.79
2018-07-02T04:41:29.154Z,29.40
2018-07-02T04:43:04.776Z,28.54
2018-07-02T04:44:40.396Z,27.78
2018-07-02T04:46:16.257Z,28.30
2018-07-02T04:47:51.828Z,27.69
2018-07-02T04:49:27.502Z,28.81
2018-07-02T04:51:03.211Z,28.69
2018-07-02T04:52:38.779Z,28.98
2018-07-02T04:54:14.478Z,29.19
2018-07-02T04:57:31.019Z,29.07
2018-07-02T04:59:06.654Z,28.37
2018-07-02T05:00:42.583Z,29.45
2018-07-02T05:02:18.297Z,30.44
2018-07-02T05:03:55.216Z,31.54
2018-07-02T05:05:30.819Z,32.93
2018-07-02T05:07:06.447Z,34.49
2018-07-02T05:08:42.058Z,36.77
2018-07-02T05:10:17.664Z,38.19
2018-07-02T05:11:53.478Z,38.94
2018-07-02T05:13:29.088Z,40.29
2018-07-02T05:15:05.035Z,41.83
2018-07-02T05:16:40.779Z,42.19
2018-07-02T05:18:16.371Z,42.73
2018-07-02T05:19:52.001Z,43.30
2018-07-02T05:21:27.641Z,43.93
2018-07-02T05:23:03.257Z,44.45
2018-07-02T05:24:38.851Z,44.96
2018-07-02T05:26:14.485Z,45.56
2018-07-02T05:27:50.065Z,45.49
2018-07-02T05:29:25.713Z,46.64
2018-07-02T05:31:01.295Z,46.63
2018-07-02T05:32:36.888Z,47.20
2018-07-02T05:34:12.533Z,47.75
2018-07-02T05:35:48.784Z,47.96
2018-07-02T05:37:24.407Z,48.10
2018-07-02T05:39:00.000Z,48.65
2018-07-02T05:40:35.618Z,49.06
2018-07-02T05:42:11.214Z,49.82
2018-07-02T05:43:46.888Z,49.90
2018-07-02T05:45:22.556Z,50.40
2018-07-02T05:46:58.187Z,50.74
2018-07-02T05:48:33.808Z,50.65
2018-07-02T05:50:09.479Z,50.46
2018-07-02T05:51:45.056Z,50.58
2018-07-02T05:53:20.898Z,50.81
2018-07-02T05:54:56.619Z,51.04
2018-07-02T05:56:32.250Z,51.27
2018-07-02T05:58:07.839Z,51.71
2018-07-02T05:59:43.443Z,51.80
2018-07-02T06:01:19.163Z,51.80
2018-07-02T06:02:54.759Z,51.83
2018-07-02T06:04:30.455Z,51.81
2018-07-02T06:06:09.735Z,51.81
2018-07-02T06:07:45.547Z,52.34
2018-07-02T06:09:21.220Z,52.56
2018-07-02T06:10:56.891Z,52.58
2018-07-02T06:12:33.326Z,52.50
2018-07-02T06:14:10.611Z,52.48
2018-07-02T06:15:46.305Z,52.05
2018-07-02T06:17:21.957Z,52.21
2018-07-02T06:18:57.571Z,52.37
2018-07-02T06:20:33.169Z,52.27
2018-07-02T06:22:08.784Z,52.09
2018-07-02T06:23:44.326Z,51.77
2018-07-02T06:25:19.960Z,51.70
2018-07-02T06:26:55.560Z,51.29
2018-07-02T06:28:31.164Z,51.00
2018-07-02T06:30:07.236Z,50.76
2018-07-02T06:31:43.019Z,49.99
2018-07-02T06:33:19.447Z,50.02
2018-07-02T06:34:55.696Z,50.17
2018-07-02T06:36:31.596Z,49.96
2018-07-02T06:38:07.592Z,50.09
2018-07-02T06:39:44.529Z,49.84
2018-07-02T06:41:21.180Z,49.71
2018-07-02T06:42:57.018Z,49.46
2018-07-02T06:44:33.727Z,49.20
2018-07-02T06:46:09.372Z,49.47
2018-07-02T06:47:45.072Z,49.66
2018-07-02T06:49:20.632Z,49.50
2018-07-02T06:50:56.190Z,49.29
2018-07-02T06:52:31.767Z,49.30
2018-07-02T06:54:07.354Z,49.44
2018-07-02T06:55:42.953Z,49.14
2018-07-02T06:57:20.361Z,48.56
2018-07-02T06:58:55.999Z,48.12
2018-07-02T07:00:31.681Z,49.06
2018-07-02T07:02:07.371Z,49.63
2018-07-02T07:03:46.127Z,49.27
2018-07-02T07:05:21.876Z,48.96
2018-07-02T07:06:57.794Z,48.53
2018-07-02T07:08:55.409Z,48.77
2018-07-02T07:10:37.237Z,48.62
2018-07-02T07:12:13.897Z,48.39
2018-07-02T07:13:49.697Z,48.11
2018-07-02T07:15:25.381Z,48.20
2018-07-02T07:17:01.207Z,48.01
2018-07-02T07:18:39.325Z,48.21
2018-07-02T07:20:15.885Z,47.94
2018-07-02T07:22:02.578Z,47.47
2018-07-02T07:23:39.272Z,47.39
2018-07-02T07:25:15.914Z,47.53
2018-07-02T07:26:51.483Z,47.57
2018-07-02T07:28:27.920Z,47.39
2018-07-02T07:30:17.367Z,46.92
2018-07-02T07:31:59.379Z,46.66
2018-07-02T07:33:35.760Z,46.77
2018-07-02T07:35:11.632Z,46.43
2018-07-02T07:36:48.306Z,46.71
2018-07-02T07:38:24.023Z,45.81
2018-07-02T07:39:59.930Z,45.50
2018-07-02T07:41:35.970Z,45.99
2018-07-02T07:43:11.880Z,45.85
2018-07-02T07:44:47.645Z,44.56
2018-07-02T07:46:23.390Z,44.29
2018-07-02T07:48:06.010Z,43.86
2018-07-02T07:49:41.625Z,43.80
2018-07-02T07:51:17.549Z,43.67
2018-07-02T07:52:53.700Z,43.34
2018-07-02T07:54:29.745Z,43.06
2018-07-02T07:56:05.376Z,42.81
2018-07-02T07:57:41.119Z,43.03
2018-07-02T07:59:16.791Z,42.75
2018-07-02T08:00:53.068Z,42.62
2018-07-02T08:02:28.970Z,42.57
2018-07-02T08:04:04.738Z,41.62
2018-07-02T08:05:41.737Z,41.50
2018-07-02T08:07:17.455Z,41.64
2018-07-02T08:09:06.364Z,41.38
2018-07-02T08:10:42.312Z,40.64
2018-07-02T08:12:30.569Z,41.00
2018-07-02T08:14:07.062Z,41.71
2018-07-02T08:15:42.962Z,41.66
2018-07-02T08:17:29.498Z,41.91
2018-07-02T08:19:05.505Z,41.53
2018-07-02T08:20:41.377Z,41.53
2018-07-02T08:22:17.683Z,40.88
2018-07-02T08:23:55.022Z,40.42
2018-07-02T08:25:31.521Z,41.33
2018-07-02T08:27:08.053Z,41.68
2018-07-02T08:28:44.221Z,40.83
2018-07-02T08:30:19.810Z,40.15
2018-07-02T08:31:56.240Z,39.87
2018-07-02T08:33:32.835Z,38.92
2018-07-02T08:35:08.785Z,39.32
2018-07-02T08:36:45.654Z,38.49
2018-07-02T08:38:22.023Z,38.56
2018-07-02T08:39:58.174Z,38.38
2018-07-02T08:41:34.212Z,38.25
2018-07-02T08:43:10.682Z,39.01
2018-07-02T08:44:46.315Z,37.85
2018-07-02T08:46:21.928Z,38.21
2018-07-02T08:47:57.562Z,37.93
2018-07-02T08:49:33.211Z,37.63
2018-07-02T08:51:09.552Z,37.65
2018-07-02T08:52:46.559Z,38.31
2018-07-02T08:54:29.564Z,37.30
2018-07-02T08:56:05.614Z,37.26
2018-07-02T08:57:41.463Z,37.12
2018-07-02T08:59:17.273Z,36.37
2018-07-02T09:00:57.558Z,36.12
2018-07-02T09:02:33.427Z,36.02
2018-07-02T09:04:09.090Z,36.09
2018-07-02T09:05:45.739Z,36.26
2018-07-02T09:07:21.553Z,36.31
2018-07-02T09:08:57.736Z,37.01
2018-07-02T09:10:34.030Z,36.12
2018-07-02T09:12:09.954Z,36.29
2018-07-02T09:13:46.292Z,36.35
2018-07-02T09:15:22.090Z,36.08
2018-07-02T09:16:58.058Z,36.09
2018-07-02T09:18:34.214Z,35.13
2018-07-02T09:20:09.874Z,35.18
2018-07-02T09:21:45.637Z,35.52
2018-07-02T09:23:21.280Z,35.25
2018-07-02T09:24:56.955Z,35.61
2018-07-02T09:26:32.604Z,35.69
2018-07-02T09:28:08.215Z,35.65
2018-07-02T09:29:44.201Z,35.86
2018-07-02T09:31:20.086Z,36.25
2018-07-02T09:32:58.454Z,35.29
2018-07-02T09:34:35.827Z,35.38
2018-07-02T09:36:12.005Z,34.97
2018-07-02T09:37:48.533Z,35.18
2018-07-02T09:39:25.350Z,34.85
2018-07-02T09:41:07.012Z,34.93
2018-07-02T09:42:43.104Z,35.61
2018-07-02T09:44:20.930Z,35.76
2018-07-02T09:45:56.517Z,35.69
2018-07-02T09:47:32.338Z,35.33
2018-07-02T09:49:07.981Z,34.89
2018-07-02T09:50:44.969Z,34.87
2018-07-02T09:54:03.212Z,35.11
2018-07-02T09:55:46.448Z,34.82
2018-07-02T09:57:24.360Z,34.46
2018-07-02T10:01:14.538Z,34.19
2018-07-02T10:02:51.896Z,34.77
2018-07-02T10:04:28.498Z,34.58
2018-07-02T10:06:05.030Z,34.75
2018-07-02T10:07:40.904Z,34.43
2018-07-02T10:09:16.927Z,33.78
2018-07-02T10:10:54.432Z,33.95
2018-07-02T10:12:30.563Z,34.37
2018-07-02T10:14:07.249Z,34.12
2018-07-02T10:15:44.939Z,34.36
2018-07-02T10:17:21.031Z,34.62
2018-07-02T10:18:58.032Z,34.64
2018-07-02T10:20:34.670Z,34.63
2018-07-02T10:22:11.277Z,34.39
2018-07-02T10:23:52.391Z,34.23
2018-07-02T10:25:35.781Z,34.36
2018-07-02T10:27:11.411Z,35.06
2018-07-02T10:28:47.138Z,34.86
2018-07-02T10:30:22.797Z,35.11
2018-07-02T10:31:58.423Z,34.78
2018-07-02T10:33:40.926Z,34.17
2018-07-02T10:35:16.591Z,33.62
2018-07-02T10:36:52.229Z,34.12
2018-07-02T10:38:27.989Z,34.04
2018-07-02T10:40:03.635Z,34.70
2018-07-02T10:41:39.197Z,34.46
2018-07-02T10:43:14.925Z,33.67
2018-07-02T10:44:50.567Z,33.53
2018-07-02T10:46:26.234Z,33.05
2018-07-02T10:48:02.010Z,33.06
2018-07-02T10:49:37.645Z,33.27
2018-07-02T10:51:13.284Z,33.88
2018-07-02T10:52:49.005Z,33.45
2018-07-02T10:54:24.599Z,33.18
2018-07-02T10:56:00.268Z,33.35
2018-07-02T10:57:35.947Z,32.82
2018-07-02T10:59:11.759Z,32.66
2018-07-02T11:00:47.377Z,32.06
2018-07-02T11:02:23.182Z,31.68
2018-07-02T11:03:58.830Z,31.04
2018-07-02T11:05:34.517Z,31.90
2018-07-02T11:07:10.170Z,31.03
2018-07-02T11:08:45.966Z,31.40
2018-07-02T11:10:22.394Z,31.47
2018-07-02T11:11:58.029Z,31.46
2018-07-02T11:13:33.732Z,30.75
2018-07-02T11:15:09.465Z,31.96
2018-07-02T11:16:47.694Z,31.98
2018-07-02T11:18:23.314Z,31.01
2018-07-02T11:19:58.997Z,32.07
2018-07-02T11:21:37.836Z,31.01
2018-07-02T11:23:13.659Z,30.47
2018-07-02T11:24:49.568Z,30.31
2018-07-02T11:26:25.283Z,31.32
2018-07-02T11:28:20.201Z,29.83
2018-07-02T11:29:56.778Z,30.29
2018-07-02T11:31:32.887Z,29.78
2018-07-02T11:33:09.332Z,30.16
2018-07-02T11:34:46.171Z,29.87
2018-07-02T11:36:21.926Z,29.52
2018-07-02T11:37:57.570Z,29.38
2018-07-02T11:39:33.197Z,29.25
2018-07-02T11:41:08.853Z,29.52
2018-07-02T11:42:44.482Z,29.86
2018-07-02T11:44:21.249Z,29.97
2018-07-02T11:45:56.877Z,30.07
2018-07-02T11:47:32.636Z,30.36
2018-07-02T11:49:08.517Z,30.63
2018-07-02T11:51:03.198Z,28.92
2018-07-02T11:52:38.827Z,29.84
2018-07-02T11:54:15.025Z,29.16
2018-07-02T11:55:50.689Z,29.58
2018-07-02T11:57:26.252Z,29.67
2018-07-02T11:59:01.875Z,28.71
2018-07-02T12:00:37.550Z,28.62
2018-07-02T12:02:13.261Z,28.03
2018-07-02T12:04:00.890Z,28.24
2018-07-02T12:05:36.497Z,28.72
2018-07-02T12:07:12.070Z,28.88
2018-07-02T12:08:47.805Z,29.00
2018-07-02T12:10:23.860Z,29.27
2018-07-02T12:11:59.592Z,29.26
2018-07-02T12:13:35.876Z,29.58
2018-07-02T12:15:11.749Z,29.66
2018-07-02T12:16:47.708Z,28.53
2018-07-02T12:18:24.748Z,28.98
2018-07-02T12:20:01.381Z,28.92
2018-07-02T12:21:37.213Z,28.42
2018-07-02T12:23:12.989Z,28.02
2018-07-02T12:24:48.656Z,27.96
2018-07-02T12:26:24.888Z,28.47
2018-07-02T12:28:01.089Z,27.28
2018-07-02T12:29:36.854Z,27.20
2018-07-02T12:31:12.555Z,26.55
2018-07-02T12:32:48.857Z,26.60
2018-07-02T12:34:24.813Z,26.59
2018-07-02T12:36:00.535Z,26.15
2018-07-02T12:37:36.283Z,27.12
2018-07-02T12:39:16.123Z,26.20
2018-07-02T12:40:55.782Z,26.43
2018-07-02T12:42:31.827Z,25.59
2018-07-02T12:44:08.859Z,26.39
2018-07-02T12:45:46.142Z,25.74
2018-07-02T12:47:21.762Z,26.20
2018-07-02T12:49:00.094Z,27.14
2018-07-02T12:50:37.707Z,26.78
2018-07-02T12:52:14.129Z,26.55
2018-07-02T12:53:50.135Z,26.73
2018-07-02T12:55:27.849Z,26.43
2018-07-02T12:57:04.792Z,26.21
2018-07-02T12:58:40.494Z,25.77
2018-07-02T13:00:17.944Z,26.44
2018-07-02T13:01:54.548Z,26.30
2018-07-02T13:03:30.777Z,26.23
2018-07-02T13:05:06.883Z,27.13
2018-07-02T13:06:43.463Z,26.56
2018-07-02T13:08:21.413Z,26.23
2018-07-02T13:10:04.939Z,26.47
2018-07-02T13:11:42.229Z,26.49
2018-07-02T13:13:19.130Z,25.45
2018-07-02T13:15:00.350Z,25.67
2018-07-02T13:16:38.650Z,26.58
2018-07-02T13:18:14.352Z,26.18
2018-07-02T13:19:51.817Z,26.90
2018-07-02T13:21:28.390Z,26.52
2018-07-02T13:23:04.927Z,26.77
2018-07-02T13:24:40.515Z,25.84
2018-07-02T13:26:35.045Z,26.21
2018-07-02T13:28:32.569Z,26.30
2018-07-02T13:30:08.762Z,27.22
2018-07-02T13:31:47.262Z,27.29
2018-07-02T13:33:23.512Z,26.57
2018-07-02T13:35:08.166Z,26.75
2018-07-02T13:36:45.897Z,26.69
2018-07-02T13:38:22.187Z,26.31
2018-07-02T13:39:58.710Z,26.17
2018-07-02T13:41:34.974Z,26.51
2018-07-02T13:43:11.425Z,25.73
2018-07-02T13:44:47.282Z,26.36
2018-07-02T13:46:24.155Z,25.77
2018-07-02T13:48:00.876Z,26.38
2018-07-02T13:49:37.694Z,26.17
2018-07-02T13:51:14.508Z,26.31
2018-07-02T13:52:50.660Z,25.76
2018-07-02T13:54:26.984Z,25.82
2018-07-02T13:56:03.010Z,26.77
2018-07-02T13:57:38.832Z,26.17
2018-07-02T13:59:15.950Z,25.85
2018-07-02T14:00:52.350Z,25.73
2018-07-02T14:02:28.100Z,26.50
2018-07-02T14:04:08.744Z,26.41
2018-07-02T14:05:45.435Z,26.64
2018-07-02T14:07:34.255Z,25.27
2018-07-02T14:10:47.655Z,23.84
2018-07-02T14:12:27.437Z,23.84
2018-07-02T14:14:03.342Z,23.73
2018-07-02T14:15:38.976Z,24.16
2018-07-02T14:17:20.054Z,24.13
2018-07-02T14:19:04.293Z,24.91
2018-07-02T14:20:45.040Z,24.40
2018-07-02T14:22:21.944Z,24.00
2018-07-02T14:23:59.401Z,24.27
2018-07-02T14:25:35.310Z,25.07
2018-07-02T14:27:11.853Z,24.16
2018-07-02T14:28:48.277Z,24.48
2018-07-02T14:30:24.238Z,24.31
2018-07-02T14:32:01.236Z,23.88
2018-07-02T14:33:38.601Z,24.28
2018-07-02T14:35:19.981Z,23.97
2018-07-02T14:36:55.585Z,24.69
2018-07-02T14:38:31.187Z,24.71
2018-07-02T14:40:06.894Z,23.33
2018-07-02T14:41:42.516Z,23.48
2018-07-02T14:43:18.323Z,24.00
2018-07-02T14:44:54.084Z,24.67
2018-07-02T14:46:30.532Z,24.97
2018-07-02T14:48:06.601Z,24.65
2018-07-02T14:49:42.234Z,24.55
2018-07-02T14:51:18.394Z,24.10
2018-07-02T14:53:12.668Z,23.89
2018-07-02T14:54:48.271Z,25.22
2018-07-02T14:56:29.792Z,23.62
2018-07-02T14:58:05.755Z,23.22
2018-07-02T14:59:42.094Z,23.54
2018-07-02T15:01:17.826Z,24.08
2018-07-02T15:02:53.618Z,23.46
2018-07-02T15:04:41.405Z,23.54
2018-07-02T15:06:17.091Z,23.46
2018-07-02T15:07:53.153Z,23.89
2018-07-02T15:09:28.843Z,24.25
2018-07-02T15:11:04.450Z,24.38
2018-07-02T15:12:40.075Z,24.03
2018-07-02T15:14:15.690Z,23.87
2018-07-02T15:15:51.370Z,24.39
2018-07-02T15:17:27.053Z,22.77
2018-07-02T15:19:02.815Z,23.56
2018-07-02T15:20:38.464Z,22.46
2018-07-02T15:22:14.430Z,23.67
2018-07-02T15:23:50.096Z,22.85
2018-07-02T15:25:32.215Z,22.49
2018-07-02T15:27:09.434Z,22.59
2018-07-02T15:28:45.615Z,22.45
2018-07-02T15:30:21.459Z,22.03
2018-07-02T15:31:58.024Z,22.06
2018-07-02T15:33:34.663Z,22.25
2018-07-02T15:35:11.263Z,22.37
2018-07-02T15:36:49.227Z,21.80
2018-07-02T15:38:25.012Z,22.81
2018-07-02T15:40:00.783Z,22.43
2018-07-02T15:41:36.605Z,22.67
2018-07-02T15:43:12.453Z,22.51
2018-07-02T15:44:48.751Z,23.43
2018-07-02T15:46:26.800Z,23.70
2018-07-02T15:48:03.350Z,22.24
2018-07-02T15:49:39.274Z,22.86
2018-07-02T15:51:16.422Z,22.21
2018-07-02T15:52:52.815Z,22.99
2018-07-02T15:54:28.617Z,22.54
2018-07-02T15:56:04.688Z,22.58
2018-07-02T15:57:40.646Z,21.26
2018-07-02T15:59:16.905Z,21.33
2018-07-02T16:00:52.744Z,21.43
2018-07-02T16:02:28.476Z,20.98
2018-07-02T16:04:16.250Z,20.17
2018-07-02T16:05:51.911Z,20.18
2018-07-02T16:07:27.617Z,20.06
2018-07-02T16:09:09.780Z,21.44
2018-07-02T16:10:53.032Z,20.87
2018-07-02T16:12:35.789Z,20.09
2018-07-02T16:14:11.862Z,19.91
2018-07-02T16:15:47.977Z,20.29
2018-07-02T16:17:24.491Z,20.05
2018-07-02T16:19:01.065Z,19.67
2018-07-02T16:20:43.833Z,19.65
2018-07-02T16:22:36.678Z,19.61
2018-07-02T16:24:17.710Z,19.61
2018-07-02T16:25:59.802Z,20.88
2018-07-02T16:27:56.474Z,19.70
2018-07-02T16:29:40.321Z,19.53
2018-07-02T16:31:21.570Z,20.31
2018-07-02T16:33:02.891Z,19.90
2018-07-02T16:34:44.061Z,19.70
2018-07-02T16:36:20.171Z,19.36
2018-07-02T16:37:55.964Z,19.38
2018-07-02T16:39:32.654Z,19.42
2018-07-02T16:41:08.387Z,19.45
2018-07-02T16:42:44.136Z,19.16
2018-07-02T16:46:28.811Z,19.39
2018-07-02T16:48:04.981Z,19.42
2018-07-02T16:49:41.292Z,18.84
2018-07-02T16:51:17.057Z,18.90
2018-07-02T16:52:54.731Z,18.50
2018-07-02T16:54:31.436Z,18.36
2018-07-02T16:58:14.317Z,18.21
2018-07-02T16:59:51.058Z,18.49
2018-07-02T17:01:39.615Z,18.13
2018-07-02T17:03:16.321Z,18.05
2018-07-02T17:04:53.442Z,18.09
2018-07-02T17:06:29.227Z,18.92
2018-07-02T17:08:06.019Z,18.17
2018-07-02T17:09:43.075Z,18.56
2018-07-02T17:11:31.846Z,18.45
2018-07-02T17:13:07.568Z,19.59
2018-07-02T17:14:43.336Z,19.50
2018-07-02T17:16:19.197Z,19.65
2018-07-02T17:17:56.796Z,20.89
2018-07-02T17:19:32.577Z,20.30
2018-07-02T17:21:08.393Z,21.11
2018-07-02T17:22:48.196Z,20.21
2018-07-02T17:24:23.934Z,20.96
2018-07-02T17:25:59.692Z,20.75
2018-07-02T17:27:36.331Z,21.25
2018-07-02T17:29:11.953Z,21.60
2018-07-02T17:30:48.707Z,21.27
2018-07-02T17:32:32.437Z,21.11
2018-07-02T17:34:10.781Z,22.56
2018-07-02T17:35:48.042Z,21.92
2018-07-02T17:37:30.832Z,21.06
2018-07-02T17:39:10.235Z,21.02
2018-07-02T17:40:56.398Z,21.33
2018-07-02T17:42:32.574Z,20.96
2018-07-02T17:44:10.896Z,20.89
2018-07-02T17:46:10.008Z,22.09
2018-07-02T17:47:48.350Z,22.47
2018-07-02T17:49:24.900Z,22.56
2018-07-02T17:51:00.957Z,22.63
2018-07-02T17:52:44.468Z,22.19
2018-07-02T17:54:30.082Z,22.36
2018-07-02T17:56:05.996Z,21.86
2018-07-02T17:59:48.573Z,22.11
2018-07-02T18:01:24.513Z,21.64
2018-07-02T18:03:00.135Z,21.73
2018-07-02T18:04:48.941Z,22.40
2018-07-02T18:06:24.782Z,21.93
2018-07-02T18:08:00.428Z,22.40
2018-07-02T18:09:49.286Z,22.27
2018-07-02T18:11:39.026Z,21.66
2018-07-02T18:13:15.853Z,22.11
2018-07-02T18:14:51.900Z,22.83
2018-07-02T18:16:27.520Z,22.66
2018-07-02T18:18:03.327Z,23.73
2018-07-02T18:19:44.375Z,23.90
2018-07-02T18:21:20.189Z,23.79
2018-07-02T18:22:55.924Z,25.13
2018-07-02T18:24:47.688Z,24.53
2018-07-02T18:26:23.542Z,25.52
2018-07-02T18:28:12.248Z,26.90
2018-07-02T18:29:48.008Z,27.54
2018-07-02T18:31:23.666Z,26.57
2018-07-02T18:32:59.394Z,28.00
2018-07-02T18:38:50.819Z,29.89
2018-07-02T18:40:26.517Z,29.79
2018-07-02T18:42:02.462Z,30.50
2018-07-02T18:43:42.083Z,30.65
2018-07-02T18:45:17.923Z,30.26
2018-07-02T18:47:06.318Z,30.88
2018-07-02T18:48:42.047Z,31.25
2018-07-02T18:50:17.763Z,31.10
2018-07-02T18:52:04.866Z,31.83
2018-07-02T18:53:41.327Z,31.24
2018-07-02T18:55:20.329Z,31.91
2018-07-02T18:57:03.928Z,31.88
2018-07-02T18:58:40.288Z,31.86
2018-07-02T19:00:17.405Z,32.42
2018-07-02T19:01:53.273Z,33.55
2018-07-02T19:03:28.990Z,33.60
2018-07-02T19:05:06.402Z,33.46
2018-07-02T19:06:45.515Z,32.45
2018-07-02T19:08:22.859Z,33.00
2018-07-02T19:10:04.967Z,33.16
2018-07-02T19:11:42.958Z,33.42
2018-07-02T19:13:19.046Z,33.83
2018-07-02T19:14:56.824Z,33.77
2018-07-02T19:16:33.395Z,33.37
2018-07-02T19:18:09.251Z,34.46
2018-07-02T19:19:45.161Z,34.20
2018-07-02T19:21:21.969Z,34.00
2018-07-02T19:22:57.822Z,34.15
2018-07-02T19:24:33.615Z,34.31
2018-07-02T19:26:10.873Z,34.15
2018-07-02T19:27:46.771Z,34.30
2018-07-02T19:29:22.592Z,34.38
2018-07-02T19:30:58.635Z,34.35
2018-07-02T19:32:34.384Z,34.77
2018-07-02T19:34:10.563Z,34.48
2018-07-02T19:35:46.522Z,34.61
2018-07-02T19:37:22.255Z,35.37
2018-07-02T19:38:58.821Z,34.84
2018-07-02T19:40:34.588Z,34.92
2018-07-02T19:42:10.259Z,35.35
2018-07-02T19:43:49.537Z,35.61
2018-07-02T19:45:25.763Z,35.70
2018-07-02T19:47:01.571Z,35.44
2018-07-02T19:48:37.262Z,35.84
2018-07-02T19:50:14.136Z,35.91
2018-07-02T19:51:49.821Z,35.90
2018-07-02T19:53:25.639Z,36.18
2018-07-02T19:55:02.018Z,36.22
2018-07-02T19:56:38.302Z,36.63
2018-07-02T19:58:14.053Z,36.29
2018-07-02T19:59:50.119Z,36.25
2018-07-02T20:01:25.792Z,36.58
2018-07-02T20:03:01.413Z,36.72
2018-07-02T20:04:37.189Z,36.82
2018-07-02T20:06:13.939Z,37.21
2018-07-02T20:07:51.276Z,37.21
2018-07-02T20:09:26.931Z,37.64
2018-07-02T20:11:03.573Z,37.89
2018-07-02T20:12:41.064Z,37.88
2018-07-02T20:14:16.876Z,37.94
2018-07-02T20:15:52.888Z,38.24
2018-07-02T20:17:28.620Z,38.59
2018-07-02T20:19:05.499Z,38.59
2018-07-02T20:20:48.329Z,38.51
2018-07-02T20:22:25.190Z,38.51
2018-07-02T20:24:00.980Z,38.62
2018-07-02T20:25:38.906Z,38.79
2018-07-02T20:27:15.674Z,38.90
2018-07-02T20:28:51.313Z,38.92
2018-07-02T20:30:27.018Z,39.19
2018-07-02T20:32:03.523Z,39.20
2018-07-02T20:33:39.471Z,39.68
2018-07-02T20:35:15.288Z,39.48
2018-07-02T20:36:51.237Z,39.68
2018-07-02T20:38:27.728Z,39.62
2018-07-02T20:40:05.069Z,39.54
2018-07-02T20:41:41.444Z,39.51
2018-07-02T20:43:17.178Z,39.50
2018-07-02T20:44:52.886Z,40.03
2018-07-02T20:46:28.565Z,40.05
2018-07-02T20:48:05.695Z,40.16
2018-07-02T20:49:44.818Z,39.98
2018-07-02T20:51:25.049Z,40.21
2018-07-02T20:53:03.297Z,40.69
2018-07-02T20:54:41.242Z,40.97
2018-07-02T20:56:17.496Z,41.07
2018-07-02T20:57:53.340Z,40.81
2018-07-02T20:59:29.228Z,40.45
2018-07-02T21:01:05.905Z,40.51
2018-07-02T21:02:42.249Z,40.63
2018-07-02T21:04:18.881Z,40.75
2018-07-02T21:05:54.904Z,40.95
2018-07-02T21:07:31.105Z,41.09